< < Back
Terminal Aerodrome Forecast


Current Version              Previous Versions:   1  2  3  4  5  6  7  8  9  

Terminal Aerodrome Forecast

184
FTUS42 KFFC 251124
TAFPDK
TAF
KPDK 251124Z 2512/2612 VRB03KT P6SM FEW250
     FM251500 20005KT P6SM SCT060 BKN250
     FM260200 17004KT P6SM BKN250=

Latest METAR

465
SAUS70 KWBC 261000 RRE
MTRPDK
METAR KPDK 260953Z AUTO 00000KT 10SM CLR 19/16 A3017 RMK AO2 SLP198
T01940156


USA.gov is the U.S. government's official web portal to all federal, state and local government web resources and services.